createdAt,value
2018-11-13T00:00:44.705Z,11.23
2018-11-13T00:03:12.063Z,13.30
2018-11-13T00:05:39.415Z,12.47
2018-11-13T00:08:06.806Z,9.63
2018-11-13T00:10:34.320Z,10.63
2018-11-13T00:13:01.683Z,10.90
2018-11-13T00:15:29.039Z,12.70
2018-11-13T00:17:56.412Z,10.73
2018-11-13T00:20:23.810Z,9.50
2018-11-13T00:22:51.163Z,14.87
2018-11-13T00:25:19.495Z,8.23
2018-11-13T00:27:46.818Z,8.40
2018-11-13T00:30:16.631Z,10.60
2018-11-13T00:32:44.335Z,11.97
2018-11-13T00:35:12.587Z,9.10
2018-11-13T00:37:39.946Z,7.70
2018-11-13T00:40:08.019Z,7.67
2018-11-13T00:42:35.409Z,11.00
2018-11-13T00:45:02.772Z,12.07
2018-11-13T00:47:30.170Z,10.73
2018-11-13T00:49:57.606Z,9.23
2018-11-13T00:52:24.950Z,7.33
2018-11-13T00:54:52.323Z,6.60
2018-11-13T00:57:19.691Z,9.83
2018-11-13T00:59:47.044Z,10.33
2018-11-13T01:02:14.375Z,10.20
2018-11-13T01:04:41.753Z,9.27
2018-11-13T01:07:09.148Z,11.23
2018-11-13T01:09:36.503Z,6.53
2018-11-13T01:12:03.849Z,11.67
2018-11-13T01:14:31.194Z,7.77
2018-11-13T01:16:58.537Z,6.43
2018-11-13T01:19:25.912Z,11.37
2018-11-13T01:21:53.253Z,7.17
2018-11-13T01:24:20.620Z,7.10
2018-11-13T01:26:47.960Z,8.50
2018-11-13T01:29:15.318Z,11.10
2018-11-13T01:31:42.655Z,4.80
2018-11-13T01:34:10.041Z,14.07
2018-11-13T01:36:37.389Z,6.47
2018-11-13T01:39:06.666Z,13.10
2018-11-13T01:41:34.021Z,7.70
2018-11-13T01:44:01.376Z,6.93
2018-11-13T01:46:28.811Z,17.10
2018-11-13T01:48:56.204Z,5.83
2018-11-13T01:51:23.575Z,8.77
2018-11-13T01:53:50.941Z,15.33
2018-11-13T01:56:18.293Z,13.13
2018-11-13T01:58:45.660Z,6.93
2018-11-13T02:01:13.018Z,5.77
2018-11-13T02:03:40.384Z,5.47
2018-11-13T02:06:07.735Z,5.93
2018-11-13T02:08:35.113Z,11.03
2018-11-13T02:11:02.471Z,6.30
2018-11-13T02:13:29.903Z,16.20
2018-11-13T02:15:57.267Z,6.60
2018-11-13T02:18:24.644Z,8.53
2018-11-13T02:20:52.052Z,6.67
2018-11-13T02:23:19.411Z,7.30
2018-11-13T02:25:46.784Z,11.07
2018-11-13T02:28:14.129Z,6.00
2018-11-13T02:30:41.513Z,9.00
2018-11-13T02:33:08.879Z,6.27
2018-11-13T02:35:36.292Z,6.03
2018-11-13T02:38:03.692Z,8.27
2018-11-13T02:40:31.023Z,6.70
2018-11-13T02:42:58.372Z,6.50
2018-11-13T02:45:25.763Z,7.00
2018-11-13T02:47:53.122Z,7.00
2018-11-13T02:50:21.307Z,6.53
2018-11-13T02:52:48.710Z,5.23
2018-11-13T02:55:16.122Z,6.27
2018-11-13T02:57:44.053Z,10.70
2018-11-13T03:00:13.479Z,6.37
2018-11-13T03:02:40.836Z,7.63
2018-11-13T03:05:09.141Z,7.17
2018-11-13T03:07:36.529Z,4.87
2018-11-13T03:10:03.972Z,5.67
2018-11-13T03:12:31.416Z,6.20
2018-11-13T03:14:58.804Z,4.33
2018-11-13T03:17:26.161Z,5.47
2018-11-13T03:19:53.530Z,4.90
2018-11-13T03:22:20.937Z,5.57
2018-11-13T03:24:48.311Z,3.50
2018-11-13T03:27:15.651Z,6.27
2018-11-13T03:29:43.023Z,6.87
2018-11-13T03:32:10.378Z,5.80
2018-11-13T03:34:37.785Z,4.30
2018-11-13T03:37:05.233Z,5.77
2018-11-13T03:39:32.622Z,5.60
2018-11-13T03:41:59.979Z,5.23
2018-11-13T03:44:27.359Z,6.47
2018-11-13T03:46:54.684Z,6.70
2018-11-13T03:49:22.043Z,4.80
2018-11-13T03:51:49.403Z,3.50
2018-11-13T03:54:16.758Z,4.80
2018-11-13T03:56:44.101Z,6.30
2018-11-13T03:59:11.475Z,4.17
2018-11-13T04:01:38.808Z,3.83
2018-11-13T04:04:11.593Z,3.63
2018-11-13T04:06:38.969Z,5.80
2018-11-13T04:09:07.559Z,3.00
2018-11-13T04:11:34.900Z,3.93
2018-11-13T04:14:02.267Z,4.90
2018-11-13T04:16:29.606Z,6.83
2018-11-13T04:18:56.934Z,4.27
2018-11-13T04:21:24.291Z,2.80
2018-11-13T04:23:51.634Z,6.63
2018-11-13T04:26:19.003Z,3.47
2018-11-13T04:28:46.356Z,4.90
2018-11-13T04:31:13.717Z,9.30
2018-11-13T04:33:41.090Z,9.73
2018-11-13T04:36:08.459Z,4.17
2018-11-13T04:38:35.788Z,4.20
2018-11-13T04:41:03.158Z,3.80
2018-11-13T04:43:30.488Z,5.30
2018-11-13T04:45:57.844Z,4.70
2018-11-13T04:48:25.190Z,7.33
2018-11-13T04:50:52.535Z,2.57
2018-11-13T04:53:19.874Z,3.83
2018-11-13T04:55:47.240Z,5.90
2018-11-13T04:58:14.568Z,5.90
2018-11-13T05:00:41.937Z,2.20
2018-11-13T05:03:09.275Z,6.80
2018-11-13T05:05:36.639Z,10.73
2018-11-13T05:08:04.012Z,2.80
2018-11-13T05:10:31.386Z,3.50
2018-11-13T05:12:58.719Z,3.17
2018-11-13T05:15:26.087Z,2.73
2018-11-13T05:17:53.434Z,4.07
2018-11-13T05:20:20.787Z,2.43
2018-11-13T05:22:48.125Z,2.70
2018-11-13T05:25:19.555Z,5.20
2018-11-13T05:27:46.892Z,2.63
2018-11-13T05:30:16.452Z,2.57
2018-11-13T05:32:43.785Z,6.20
2018-11-13T05:35:12.387Z,7.20
2018-11-13T05:37:40.464Z,5.47
2018-11-13T05:40:08.709Z,2.23
2018-11-13T05:42:36.052Z,3.30
2018-11-13T05:45:03.944Z,14.47
2018-11-13T05:47:31.293Z,7.03
2018-11-13T05:49:58.699Z,5.60
2018-11-13T05:52:26.038Z,9.37
2018-11-13T05:54:53.559Z,3.30
2018-11-13T05:57:20.893Z,39.23
2018-11-13T05:59:48.297Z,14.47
2018-11-13T06:02:15.692Z,16.23
2018-11-13T06:04:43.064Z,19.47
2018-11-13T06:07:10.406Z,24.10
2018-11-13T06:09:37.772Z,20.80
2018-11-13T06:12:10.146Z,18.80
2018-11-13T06:14:37.543Z,13.33
2018-11-13T06:17:04.917Z,16.77
2018-11-13T06:19:32.269Z,9.20
2018-11-13T06:21:59.641Z,8.80
2018-11-13T06:24:26.999Z,9.63
2018-11-13T06:26:54.387Z,10.93
2018-11-13T06:29:21.729Z,10.73
2018-11-13T06:31:49.099Z,6.10
2018-11-13T06:34:16.481Z,6.70
2018-11-13T06:36:43.841Z,6.80
2018-11-13T06:39:13.125Z,3.47
2018-11-13T06:41:41.003Z,6.63
2018-11-13T06:44:08.343Z,3.57
2018-11-13T06:46:35.722Z,5.77
2018-11-13T06:49:03.123Z,7.33
2018-11-13T06:51:30.504Z,9.60
2018-11-13T06:54:03.390Z,9.47
2018-11-13T06:56:30.807Z,14.60
2018-11-13T06:58:58.167Z,13.30
2018-11-13T07:01:25.541Z,7.27
2018-11-13T07:03:52.888Z,20.57
2018-11-13T07:06:20.253Z,15.87
2018-11-13T07:08:47.673Z,8.00
2018-11-13T07:11:15.094Z,3.83
2018-11-13T07:13:42.411Z,6.43
2018-11-13T07:16:09.775Z,4.50
2018-11-13T07:18:37.278Z,8.50
2018-11-13T07:21:04.840Z,4.33
2018-11-13T07:23:32.175Z,6.90
2018-11-13T07:25:59.534Z,8.80
2018-11-13T07:28:26.864Z,15.50
2018-11-13T07:30:54.236Z,7.65
2018-11-13T07:33:21.598Z,5.43
2018-11-13T07:35:48.951Z,6.77
2018-11-13T07:38:16.269Z,8.37
2018-11-13T07:40:43.621Z,2.03
2018-11-13T07:43:10.964Z,2.60
2018-11-13T07:45:38.335Z,4.10
2018-11-13T07:48:05.822Z,10.13
2018-11-13T07:50:33.133Z,4.80
2018-11-13T07:53:00.468Z,5.07
2018-11-13T07:55:27.798Z,4.00
2018-11-13T07:57:55.163Z,5.97
2018-11-13T08:00:23.727Z,7.60
2018-11-13T08:02:52.383Z,5.17
2018-11-13T08:05:19.755Z,4.78
2018-11-13T08:07:47.123Z,4.63
2018-11-13T08:10:14.779Z,2.37
2018-11-13T08:12:42.208Z,3.73
2018-11-13T08:15:10.954Z,4.17
2018-11-13T08:17:38.593Z,2.10
2018-11-13T08:20:06.809Z,3.87
2018-11-13T08:22:34.166Z,5.73
2018-11-13T08:25:01.504Z,6.30
2018-11-13T08:27:28.855Z,3.90
2018-11-13T08:29:56.181Z,3.07
2018-11-13T08:32:23.560Z,4.10
2018-11-13T08:34:57.612Z,9.13
2018-11-13T08:37:24.966Z,5.47
2018-11-13T08:39:52.387Z,1.60
2018-11-13T08:42:19.753Z,3.03
2018-11-13T08:44:47.091Z,2.20
2018-11-13T08:47:14.474Z,6.70
2018-11-13T08:49:41.810Z,2.20
2018-11-13T08:52:09.193Z,3.57
2018-11-13T08:54:36.539Z,2.87
2018-11-13T08:57:03.926Z,3.10
2018-11-13T08:59:31.328Z,6.07
2018-11-13T09:01:58.635Z,3.30
2018-11-13T09:04:26.028Z,2.83
2018-11-13T09:06:53.392Z,3.37
2018-11-13T09:09:20.715Z,4.27
2018-11-13T09:11:48.141Z,4.10
2018-11-13T09:14:15.431Z,2.87
2018-11-13T09:16:42.793Z,1.97
2018-11-13T09:19:10.313Z,3.37
2018-11-13T09:21:37.512Z,6.10
2018-11-13T09:24:04.942Z,3.53
2018-11-13T09:26:32.545Z,5.57
2018-11-13T09:28:59.907Z,4.50
2018-11-13T09:31:27.327Z,3.37
2018-11-13T09:33:54.680Z,2.00
2018-11-13T09:36:22.049Z,2.20
2018-11-13T09:38:49.426Z,1.63
2018-11-13T09:41:16.758Z,4.73
2018-11-13T09:43:44.119Z,2.83
2018-11-13T09:46:11.492Z,3.33
2018-11-13T09:48:38.879Z,5.50
2018-11-13T09:51:06.227Z,1.47
2018-11-13T09:53:33.738Z,2.40
2018-11-13T09:56:00.946Z,1.50
2018-11-13T09:58:28.488Z,2.10
2018-11-13T10:00:55.791Z,1.37
2018-11-13T10:03:23.825Z,6.47
2018-11-13T10:05:50.593Z,1.73
2018-11-13T10:08:17.951Z,2.00
2018-11-13T10:10:45.318Z,1.40
2018-11-13T10:13:12.669Z,6.33
2018-11-13T10:15:40.002Z,1.80
2018-11-13T10:18:07.549Z,1.60
2018-11-13T10:20:34.736Z,3.47
2018-11-13T10:23:02.090Z,3.80
2018-11-13T10:25:29.433Z,1.30
2018-11-13T10:27:56.796Z,1.80
2018-11-13T10:30:24.692Z,1.80
2018-11-13T10:32:52.923Z,4.27
2018-11-13T10:35:21.639Z,4.90
2018-11-13T10:37:48.991Z,1.47
2018-11-13T10:40:17.649Z,3.63
2018-11-13T10:42:44.993Z,3.07
2018-11-13T10:45:14.034Z,4.20
2018-11-13T10:47:41.649Z,1.53
2018-11-13T10:50:09.601Z,1.60
2018-11-13T10:52:37.163Z,2.63
2018-11-13T10:55:04.579Z,1.20
2018-11-13T10:57:31.933Z,2.87
2018-11-13T10:59:59.265Z,2.23
2018-11-13T11:02:32.099Z,1.90
2018-11-13T11:05:03.674Z,1.60
2018-11-13T11:07:31.028Z,1.83
2018-11-13T11:09:58.388Z,0.97
2018-11-13T11:12:25.749Z,1.80
2018-11-13T11:14:53.078Z,1.77
2018-11-13T11:17:20.434Z,1.30
2018-11-13T11:19:47.785Z,1.20
2018-11-13T11:22:15.146Z,2.23
2018-11-13T11:24:42.480Z,2.30
2018-11-13T11:27:09.813Z,2.03
2018-11-13T11:29:37.171Z,1.50
2018-11-13T11:32:04.527Z,2.90
2018-11-13T11:34:31.921Z,1.43
2018-11-13T11:36:59.255Z,1.67
2018-11-13T11:39:26.636Z,1.23
2018-11-13T11:41:53.980Z,1.93
2018-11-13T11:44:21.370Z,1.87
2018-11-13T11:46:48.707Z,1.40
2018-11-13T11:49:16.064Z,2.40
2018-11-13T11:51:43.405Z,2.53
2018-11-13T11:54:10.783Z,1.30
2018-11-13T11:56:38.131Z,2.53
2018-11-13T11:59:05.511Z,1.03
2018-11-13T12:01:32.872Z,2.60
2018-11-13T12:04:00.243Z,1.47
2018-11-13T12:06:27.584Z,1.70
2018-11-13T12:08:55.832Z,2.57
2018-11-13T12:11:23.162Z,1.83
2018-11-13T12:13:50.539Z,1.43
2018-11-13T12:16:17.880Z,2.67
2018-11-13T12:18:45.308Z,1.63
2018-11-13T12:21:12.654Z,1.20
2018-11-13T12:23:40.014Z,1.40
2018-11-13T12:26:07.342Z,0.90
2018-11-13T12:28:34.730Z,1.10
2018-11-13T12:31:02.059Z,0.90
2018-11-13T12:33:29.440Z,1.93
2018-11-13T12:35:56.769Z,1.30
2018-11-13T12:38:24.131Z,1.37
2018-11-13T12:40:51.601Z,0.90
2018-11-13T12:43:18.869Z,1.37
2018-11-13T12:45:46.238Z,1.37
2018-11-13T12:48:13.592Z,1.10
2018-11-13T12:50:46.236Z,1.13
2018-11-13T12:53:13.608Z,3.03
2018-11-13T12:55:40.959Z,1.80
2018-11-13T12:58:08.330Z,1.00
2018-11-13T13:00:35.676Z,1.53
2018-11-13T13:03:03.029Z,1.23
2018-11-13T13:05:30.371Z,1.10
2018-11-13T13:07:57.726Z,0.80
2018-11-13T13:10:25.075Z,3.10
2018-11-13T13:12:52.407Z,1.00
2018-11-13T13:15:20.058Z,0.97
2018-11-13T13:17:47.435Z,1.30
2018-11-13T13:20:16.650Z,1.00
2018-11-13T13:22:44.957Z,1.20
2018-11-13T13:25:13.525Z,1.47
2018-11-13T13:27:40.896Z,1.50
2018-11-13T13:30:09.106Z,2.43
2018-11-13T13:32:36.570Z,0.70
2018-11-13T13:35:08.625Z,2.93
2018-11-13T13:37:35.963Z,1.47
2018-11-13T13:40:03.743Z,1.25
2018-11-13T13:42:31.081Z,0.97
2018-11-13T13:44:58.452Z,1.10
2018-11-13T13:47:25.782Z,1.13
2018-11-13T13:49:53.135Z,1.10
2018-11-13T13:52:20.497Z,0.80
2018-11-13T13:54:47.851Z,1.53
2018-11-13T13:57:15.181Z,1.00
2018-11-13T13:59:42.611Z,1.13
2018-11-13T14:02:09.907Z,3.60
2018-11-13T14:04:37.266Z,0.83
2018-11-13T14:07:04.603Z,1.00
2018-11-13T14:09:31.999Z,0.93
2018-11-13T14:11:59.332Z,1.20
2018-11-13T14:14:26.700Z,1.20
2018-11-13T14:16:54.040Z,2.30
2018-11-13T14:19:21.405Z,1.77
2018-11-13T14:21:48.760Z,1.63
2018-11-13T14:24:16.124Z,1.07
2018-11-13T14:26:43.462Z,1.00
2018-11-13T14:29:10.904Z,0.87
2018-11-13T14:31:38.201Z,1.00
2018-11-13T14:34:05.644Z,2.27
2018-11-13T14:36:32.983Z,0.70
2018-11-13T14:39:00.345Z,1.60
2018-11-13T14:41:27.675Z,1.20
2018-11-13T14:43:55.065Z,0.80
2018-11-13T14:46:22.471Z,0.80
2018-11-13T14:48:49.791Z,1.20
2018-11-13T14:51:17.124Z,5.03
2018-11-13T14:53:44.479Z,1.13
2018-11-13T14:56:11.814Z,1.47
2018-11-13T14:58:39.174Z,1.40
2018-11-13T15:01:06.556Z,5.00
2018-11-13T15:03:33.934Z,1.73
2018-11-13T15:06:01.303Z,1.13
2018-11-13T15:08:28.678Z,0.90
2018-11-13T15:10:56.042Z,1.13
2018-11-13T15:13:24.876Z,0.93
2018-11-13T15:15:52.248Z,1.07
2018-11-13T15:18:19.588Z,0.80
2018-11-13T15:20:47.766Z,1.50
2018-11-13T15:23:15.390Z,1.00
2018-11-13T15:25:42.752Z,1.93
2018-11-13T15:28:10.615Z,0.83
2018-11-13T15:30:38.732Z,1.07
2018-11-13T15:33:07.566Z,3.23
2018-11-13T15:35:34.910Z,1.17
2018-11-13T15:38:02.232Z,0.80
2018-11-13T15:40:30.409Z,1.60
2018-11-13T15:42:57.768Z,0.90
2018-11-13T15:45:25.189Z,1.87
2018-11-13T15:47:53.364Z,1.23
2018-11-13T15:50:22.104Z,1.37
2018-11-13T15:52:49.437Z,1.07
2018-11-13T15:55:17.255Z,1.83
2018-11-13T15:57:44.964Z,1.03
2018-11-13T16:00:15.048Z,0.77
2018-11-13T16:02:42.902Z,0.90
2018-11-13T16:05:14.740Z,1.20
2018-11-13T16:07:42.079Z,1.03
2018-11-13T16:10:09.492Z,0.90
2018-11-13T16:12:36.851Z,1.43
2018-11-13T16:15:04.544Z,6.33
2018-11-13T16:17:31.880Z,0.90
2018-11-13T16:19:59.225Z,1.63
2018-11-13T16:22:26.735Z,0.80
2018-11-13T16:24:54.103Z,1.30
2018-11-13T16:27:21.453Z,1.47
2018-11-13T16:29:48.888Z,1.27
2018-11-13T16:32:16.180Z,1.90
2018-11-13T16:34:43.565Z,1.07
2018-11-13T16:37:10.897Z,1.40
2018-11-13T16:39:38.268Z,1.17
2018-11-13T16:42:05.661Z,1.70
2018-11-13T16:44:33.017Z,1.13
2018-11-13T16:47:00.416Z,1.00
2018-11-13T16:49:27.783Z,2.53
2018-11-13T16:51:55.133Z,1.67
2018-11-13T16:54:22.598Z,0.90
2018-11-13T16:56:55.927Z,2.17
2018-11-13T16:59:23.288Z,1.03
2018-11-13T17:01:50.638Z,1.87
2018-11-13T17:04:18.028Z,1.47
2018-11-13T17:06:45.526Z,0.83
2018-11-13T17:09:12.849Z,1.20
2018-11-13T17:11:40.336Z,0.73
2018-11-13T17:14:07.709Z,2.17
2018-11-13T17:16:35.028Z,1.33
2018-11-13T17:19:02.411Z,2.20
2018-11-13T17:21:29.764Z,1.92
2018-11-13T17:23:57.109Z,1.13
2018-11-13T17:26:24.456Z,3.13
2018-11-13T17:28:51.847Z,1.87
2018-11-13T17:31:19.246Z,4.83
2018-11-13T17:33:46.612Z,9.80
2018-11-13T17:36:13.979Z,17.70
2018-11-13T17:38:41.498Z,6.73
2018-11-13T17:41:08.907Z,13.87
2018-11-13T17:43:36.270Z,9.33
2018-11-13T17:46:03.649Z,6.40
2018-11-13T17:48:30.999Z,5.43
2018-11-13T17:50:58.384Z,7.50
2018-11-13T17:53:25.729Z,7.47
2018-11-13T17:55:53.376Z,5.13
2018-11-13T17:58:20.691Z,6.07
2018-11-13T18:00:48.587Z,8.00
2018-11-13T18:03:16.559Z,7.90
2018-11-13T18:05:44.304Z,2.57
2018-11-13T18:08:12.058Z,12.90
2018-11-13T18:10:40.646Z,17.00
2018-11-13T18:13:08.348Z,16.13
2018-11-13T18:15:35.736Z,8.60
2018-11-13T18:18:03.433Z,15.07
2018-11-13T18:20:31.934Z,12.53
2018-11-13T18:22:59.307Z,8.60
2018-11-13T18:25:26.850Z,12.13
2018-11-13T18:27:55.362Z,6.60
2018-11-13T18:30:24.812Z,8.07
2018-11-13T18:32:52.491Z,5.53
2018-11-13T18:35:21.964Z,25.57
2018-11-13T18:37:49.904Z,4.87
2018-11-13T18:40:18.198Z,5.43
2018-11-13T18:42:46.479Z,11.77
2018-11-13T18:45:17.401Z,8.00
2018-11-13T18:47:44.785Z,5.87
2018-11-13T18:50:15.305Z,6.40
2018-11-13T18:52:43.001Z,4.27
2018-11-13T18:55:11.191Z,6.47
2018-11-13T18:57:38.735Z,11.53
2018-11-13T19:00:07.588Z,7.10
2018-11-13T19:02:34.931Z,10.00
2018-11-13T19:05:02.311Z,4.37
2018-11-13T19:07:29.660Z,6.20
2018-11-13T19:09:57.035Z,8.83
2018-11-13T19:12:24.410Z,12.03
2018-11-13T19:14:52.016Z,4.60
2018-11-13T19:17:19.440Z,4.23
2018-11-13T19:19:46.822Z,8.73
2018-11-13T19:22:14.153Z,4.07
2018-11-13T19:24:41.483Z,7.30
2018-11-13T19:27:08.848Z,4.43
2018-11-13T19:29:36.246Z,10.30
2018-11-13T19:32:03.608Z,6.03
2018-11-13T19:34:30.974Z,3.90
2018-11-13T19:36:58.359Z,10.10
2018-11-13T19:39:25.706Z,10.03
2018-11-13T19:41:53.076Z,17.30
2018-11-13T19:44:20.704Z,7.10
2018-11-13T19:46:48.103Z,11.20
2018-11-13T19:49:15.512Z,12.20
2018-11-13T19:51:43.121Z,10.53
2018-11-13T19:54:10.339Z,19.73
2018-11-13T19:56:37.949Z,15.13
2018-11-13T19:59:05.838Z,13.37
2018-11-13T20:01:33.631Z,18.07
2018-11-13T20:04:01.186Z,18.97
2018-11-13T20:06:28.739Z,27.73
2018-11-13T20:08:57.673Z,15.80
2018-11-13T20:11:26.719Z,17.83
2018-11-13T20:13:54.398Z,28.33
2018-11-13T20:16:22.282Z,22.23
2018-11-13T20:18:49.862Z,21.23
2018-11-13T20:21:18.709Z,12.67
2018-11-13T20:23:46.529Z,15.03
2018-11-13T20:26:13.936Z,20.43
2018-11-13T20:28:41.310Z,21.77
2018-11-13T20:31:08.747Z,15.63
2018-11-13T20:33:36.105Z,18.90
2018-11-13T20:36:03.503Z,19.90
2018-11-13T20:38:30.870Z,21.50
2018-11-13T20:40:58.264Z,14.90
2018-11-13T20:43:25.628Z,15.03
2018-11-13T20:45:53.090Z,13.10
2018-11-13T20:48:20.486Z,12.03
2018-11-13T20:50:47.965Z,16.17
2018-11-13T20:53:15.312Z,14.63
2018-11-13T20:55:43.044Z,12.60
2018-11-13T20:58:10.412Z,17.40
2018-11-13T21:00:37.815Z,15.17
2018-11-13T21:03:05.647Z,16.37
2018-11-13T21:05:33.019Z,17.53
2018-11-13T21:08:00.382Z,19.60
2018-11-13T21:10:31.789Z,18.37
2018-11-13T21:12:59.447Z,10.57
2018-11-13T21:15:26.795Z,21.93
2018-11-13T21:17:54.158Z,11.00
2018-11-13T21:20:21.516Z,16.57
2018-11-13T21:22:48.904Z,19.47
2018-11-13T21:25:18.840Z,16.37
2018-11-13T21:27:46.111Z,15.43
2018-11-13T21:30:15.315Z,14.23
2018-11-13T21:32:43.446Z,10.97
2018-11-13T21:35:11.558Z,29.82
2018-11-13T21:37:39.177Z,16.80
2018-11-13T21:40:06.655Z,11.73
2018-11-13T21:42:34.032Z,9.53
2018-11-13T21:45:01.392Z,9.80
2018-11-13T21:47:28.754Z,12.43
2018-11-13T21:49:56.308Z,14.37
2018-11-13T21:52:23.484Z,8.67
2018-11-13T21:54:50.830Z,14.57
2018-11-13T21:57:18.188Z,9.50
2018-11-13T21:59:45.631Z,10.93
2018-11-13T22:02:12.996Z,7.70
2018-11-13T22:04:42.918Z,9.43
2018-11-13T22:07:10.315Z,8.07
2018-11-13T22:09:37.645Z,8.53
2018-11-13T22:12:05.019Z,13.60
2018-11-13T22:14:32.375Z,6.67
2018-11-13T22:16:59.736Z,8.80
2018-11-13T22:19:27.133Z,13.40
2018-11-13T22:21:54.487Z,10.00
2018-11-13T22:24:21.825Z,12.17
2018-11-13T22:26:49.222Z,11.27
2018-11-13T22:29:16.594Z,13.63
2018-11-13T22:31:43.975Z,11.87
2018-11-13T22:34:11.438Z,5.20
2018-11-13T22:36:38.767Z,9.10
2018-11-13T22:39:07.116Z,22.77
2018-11-13T22:41:34.441Z,11.83
2018-11-13T22:44:01.782Z,7.17
2018-11-13T22:46:29.138Z,7.80
2018-11-13T22:48:56.509Z,9.13
2018-11-13T22:51:23.885Z,5.20
2018-11-13T22:53:51.222Z,7.43
2018-11-13T22:56:18.574Z,9.57
2018-11-13T22:58:45.926Z,7.50
2018-11-13T23:01:13.343Z,5.90
2018-11-13T23:03:40.713Z,7.10
2018-11-13T23:06:08.071Z,4.47
2018-11-13T23:08:35.447Z,9.63
2018-11-13T23:11:08.193Z,6.10
2018-11-13T23:13:35.580Z,6.07
2018-11-13T23:16:02.938Z,5.93
2018-11-13T23:18:30.302Z,6.83
2018-11-13T23:20:57.663Z,5.00
2018-11-13T23:23:25.019Z,5.80
2018-11-13T23:25:52.362Z,5.93
2018-11-13T23:28:19.753Z,6.43
2018-11-13T23:30:47.101Z,8.00
2018-11-13T23:33:14.493Z,3.87
2018-11-13T23:35:41.811Z,6.20
2018-11-13T23:38:09.182Z,5.53
2018-11-13T23:40:36.540Z,5.95
2018-11-13T23:43:03.933Z,6.83
2018-11-13T23:45:31.275Z,6.27
2018-11-13T23:47:58.638Z,6.73
2018-11-13T23:50:26.296Z,4.10
2018-11-13T23:52:53.416Z,5.67
2018-11-13T23:55:20.808Z,9.33
2018-11-13T23:57:48.531Z,6.67
